sensor_id;sensor_type;location;lat;lon;timestamp;temperature;humidity
25949;DHT22;13961;51.178;4.448;2023-07-16T00:02:06;19.70;99.90
25949;DHT22;13961;51.178;4.448;2023-07-16T00:04:32;19.80;99.90
25949;DHT22;13961;51.178;4.448;2023-07-16T00:07:00;19.90;99.90
25949;DHT22;13961;51.178;4.448;2023-07-16T00:09:27;19.70;99.90
25949;DHT22;13961;51.178;4.448;2023-07-16T00:11:52;19.70;99.90
25949;DHT22;13961;51.178;4.448;2023-07-16T00:14:18;19.70;99.90
25949;DHT22;13961;51.178;4.448;2023-07-16T00:16:44;19.70;99.90
25949;DHT22;13961;51.178;4.448;2023-07-16T00:19:11;19.60;99.90
25949;DHT22;13961;51.178;4.448;2023-07-16T00:21:37;19.80;99.90
25949;DHT22;13961;51.178;4.448;2023-07-16T00:24:03;19.70;99.90
25949;DHT22;13961;51.178;4.448;2023-07-16T00:26:29;19.60;99.90
25949;DHT22;13961;51.178;4.448;2023-07-16T00:28:55;19.70;99.90
25949;DHT22;13961;51.178;4.448;2023-07-16T00:31:20;19.50;99.90
25949;DHT22;13961;51.178;4.448;2023-07-16T00:33:46;19.70;99.90
25949;DHT22;13961;51.178;4.448;2023-07-16T00:36:11;19.60;99.90
25949;DHT22;13961;51.178;4.448;2023-07-16T00:38:37;19.60;99.90
25949;DHT22;13961;51.178;4.448;2023-07-16T00:41:05;19.50;99.90
25949;DHT22;13961;51.178;4.448;2023-07-16T00:43:30;19.50;99.90
25949;DHT22;13961;51.178;4.448;2023-07-16T00:45:56;19.40;99.90
25949;DHT22;13961;51.178;4.448;2023-07-16T00:48:23;19.40;99.90
25949;DHT22;13961;51.178;4.448;2023-07-16T00:50:50;19.50;99.90
25949;DHT22;13961;51.178;4.448;2023-07-16T00:53:17;19.40;99.90
25949;DHT22;13961;51.178;4.448;2023-07-16T00:55:43;19.30;99.90
25949;DHT22;13961;51.178;4.448;2023-07-16T00:58:09;19.20;99.90
25949;DHT22;13961;51.178;4.448;2023-07-16T01:00:35;19.20;99.90
25949;DHT22;13961;51.178;4.448;2023-07-16T01:03:07;19.20;99.90
25949;DHT22;13961;51.178;4.448;2023-07-16T01:08:09;19.00;99.90
25949;DHT22;13961;51.178;4.448;2023-07-16T01:10:39;19.10;99.90
25949;DHT22;13961;51.178;4.448;2023-07-16T01:13:06;18.90;99.90
25949;DHT22;13961;51.178;4.448;2023-07-16T01:15:31;18.70;99.90
25949;DHT22;13961;51.178;4.448;2023-07-16T01:17:57;18.60;99.90
25949;DHT22;13961;51.178;4.448;2023-07-16T01:20:24;18.50;99.90
25949;DHT22;13961;51.178;4.448;2023-07-16T01:26:04;18.40;99.90
25949;DHT22;13961;51.178;4.448;2023-07-16T01:31:34;18.30;99.90
25949;DHT22;13961;51.178;4.448;2023-07-16T01:34:02;18.10;99.90
25949;DHT22;13961;51.178;4.448;2023-07-16T01:36:29;18.20;99.90
25949;DHT22;13961;51.178;4.448;2023-07-16T01:38:55;18.20;99.90
25949;DHT22;13961;51.178;4.448;2023-07-16T01:41:21;18.10;99.90
25949;DHT22;13961;51.178;4.448;2023-07-16T01:43:47;18.10;99.90
25949;DHT22;13961;51.178;4.448;2023-07-16T01:46:12;18.20;99.90
25949;DHT22;13961;51.178;4.448;2023-07-16T01:48:38;18.10;99.90
25949;DHT22;13961;51.178;4.448;2023-07-16T01:51:04;18.10;99.90
25949;DHT22;13961;51.178;4.448;2023-07-16T01:53:30;18.10;99.90
25949;DHT22;13961;51.178;4.448;2023-07-16T01:55:57;18.10;99.90
25949;DHT22;13961;51.178;4.448;2023-07-16T01:58:23;18.10;99.90
25949;DHT22;13961;51.178;4.448;2023-07-16T02:00:49;18.10;99.90
25949;DHT22;13961;51.178;4.448;2023-07-16T02:03:15;18.10;99.90
25949;DHT22;13961;51.178;4.448;2023-07-16T02:05:41;18.00;99.90
25949;DHT22;13961;51.178;4.448;2023-07-16T02:08:07;18.10;99.90
25949;DHT22;13961;51.178;4.448;2023-07-16T02:10:32;18.20;99.90
25949;DHT22;13961;51.178;4.448;2023-07-16T02:12:58;18.20;99.90
25949;DHT22;13961;51.178;4.448;2023-07-16T02:15:23;18.10;99.90
25949;DHT22;13961;51.178;4.448;2023-07-16T02:17:49;18.00;99.90
25949;DHT22;13961;51.178;4.448;2023-07-16T02:20:15;18.00;99.90
25949;DHT22;13961;51.178;4.448;2023-07-16T02:22:40;17.90;99.90
25949;DHT22;13961;51.178;4.448;2023-07-16T02:25:06;17.80;99.90
25949;DHT22;13961;51.178;4.448;2023-07-16T02:27:32;17.80;99.90
25949;DHT22;13961;51.178;4.448;2023-07-16T02:29:58;17.80;99.90
25949;DHT22;13961;51.178;4.448;2023-07-16T02:32:23;17.70;99.90
25949;DHT22;13961;51.178;4.448;2023-07-16T02:34:49;17.70;99.90
25949;DHT22;13961;51.178;4.448;2023-07-16T02:37:15;17.70;99.90
25949;DHT22;13961;51.178;4.448;2023-07-16T02:39:42;17.60;99.90
25949;DHT22;13961;51.178;4.448;2023-07-16T02:42:08;17.70;99.90
25949;DHT22;13961;51.178;4.448;2023-07-16T02:44:34;17.60;99.90
25949;DHT22;13961;51.178;4.448;2023-07-16T02:46:59;17.60;99.90
25949;DHT22;13961;51.178;4.448;2023-07-16T02:49:25;17.60;99.90
25949;DHT22;13961;51.178;4.448;2023-07-16T02:51:50;17.50;99.90
25949;DHT22;13961;51.178;4.448;2023-07-16T02:54:16;17.60;99.90
25949;DHT22;13961;51.178;4.448;2023-07-16T02:56:41;17.50;99.90
25949;DHT22;13961;51.178;4.448;2023-07-16T02:59:07;17.60;99.90
25949;DHT22;13961;51.178;4.448;2023-07-16T03:01:33;17.60;99.90
25949;DHT22;13961;51.178;4.448;2023-07-16T03:03:58;17.60;99.90
25949;DHT22;13961;51.178;4.448;2023-07-16T03:06:24;17.60;99.90
25949;DHT22;13961;51.178;4.448;2023-07-16T03:08:50;17.50;99.90
25949;DHT22;13961;51.178;4.448;2023-07-16T03:11:15;17.60;99.90
25949;DHT22;13961;51.178;4.448;2023-07-16T03:13:41;17.60;99.90
25949;DHT22;13961;51.178;4.448;2023-07-16T03:16:06;17.70;99.90
25949;DHT22;13961;51.178;4.448;2023-07-16T03:18:32;17.50;99.90
25949;DHT22;13961;51.178;4.448;2023-07-16T03:20:58;17.50;99.90
25949;DHT22;13961;51.178;4.448;2023-07-16T03:23:24;17.40;99.90
25949;DHT22;13961;51.178;4.448;2023-07-16T03:25:50;17.40;99.90
25949;DHT22;13961;51.178;4.448;2023-07-16T03:28:15;17.30;99.90
25949;DHT22;13961;51.178;4.448;2023-07-16T03:30:48;17.40;99.90
25949;DHT22;13961;51.178;4.448;2023-07-16T03:33:14;17.50;99.90
25949;DHT22;13961;51.178;4.448;2023-07-16T03:35:44;17.30;99.90
25949;DHT22;13961;51.178;4.448;2023-07-16T03:38:11;17.20;99.90
25949;DHT22;13961;51.178;4.448;2023-07-16T03:40:36;17.10;99.90
25949;DHT22;13961;51.178;4.448;2023-07-16T03:43:02;17.10;99.90
25949;DHT22;13961;51.178;4.448;2023-07-16T03:45:28;17.20;99.90
25949;DHT22;13961;51.178;4.448;2023-07-16T03:47:53;17.40;99.90
25949;DHT22;13961;51.178;4.448;2023-07-16T03:50:19;17.30;99.90
25949;DHT22;13961;51.178;4.448;2023-07-16T03:52:45;17.40;99.90
25949;DHT22;13961;51.178;4.448;2023-07-16T03:55:11;17.40;99.90
25949;DHT22;13961;51.178;4.448;2023-07-16T03:57:36;17.40;99.90
25949;DHT22;13961;51.178;4.448;2023-07-16T04:00:05;17.40;99.90
25949;DHT22;13961;51.178;4.448;2023-07-16T04:02:33;17.40;99.90
25949;DHT22;13961;51.178;4.448;2023-07-16T04:04:59;17.30;99.90
25949;DHT22;13961;51.178;4.448;2023-07-16T04:07:24;17.30;99.90
25949;DHT22;13961;51.178;4.448;2023-07-16T04:09:51;17.30;99.90
25949;DHT22;13961;51.178;4.448;2023-07-16T04:12:17;17.20;99.90
25949;DHT22;13961;51.178;4.448;2023-07-16T04:14:42;17.20;99.90
25949;DHT22;13961;51.178;4.448;2023-07-16T04:17:08;17.20;99.90
25949;DHT22;13961;51.178;4.448;2023-07-16T04:19:34;17.30;99.90
25949;DHT22;13961;51.178;4.448;2023-07-16T04:21:59;17.40;99.90
25949;DHT22;13961;51.178;4.448;2023-07-16T04:24:25;17.40;99.90
25949;DHT22;13961;51.178;4.448;2023-07-16T04:26:55;17.50;99.90
25949;DHT22;13961;51.178;4.448;2023-07-16T04:29:22;17.50;99.90
25949;DHT22;13961;51.178;4.448;2023-07-16T04:31:48;17.50;99.90
25949;DHT22;13961;51.178;4.448;2023-07-16T04:34:13;17.50;99.90
25949;DHT22;13961;51.178;4.448;2023-07-16T04:36:39;17.50;99.90
25949;DHT22;13961;51.178;4.448;2023-07-16T04:39:06;17.50;99.90
25949;DHT22;13961;51.178;4.448;2023-07-16T04:41:31;17.50;99.90
25949;DHT22;13961;51.178;4.448;2023-07-16T04:43:57;17.50;99.90
25949;DHT22;13961;51.178;4.448;2023-07-16T04:46:22;17.50;99.90
25949;DHT22;13961;51.178;4.448;2023-07-16T04:48:48;17.60;99.90
25949;DHT22;13961;51.178;4.448;2023-07-16T04:51:14;17.60;99.90
25949;DHT22;13961;51.178;4.448;2023-07-16T04:53:39;17.50;99.90
25949;DHT22;13961;51.178;4.448;2023-07-16T04:56:11;17.60;99.90
25949;DHT22;13961;51.178;4.448;2023-07-16T04:58:37;17.50;99.90
25949;DHT22;13961;51.178;4.448;2023-07-16T05:01:06;17.60;99.90
25949;DHT22;13961;51.178;4.448;2023-07-16T05:03:32;17.60;99.90
25949;DHT22;13961;51.178;4.448;2023-07-16T05:05:59;17.60;99.90
25949;DHT22;13961;51.178;4.448;2023-07-16T05:08:24;17.60;99.90
25949;DHT22;13961;51.178;4.448;2023-07-16T05:10:50;17.50;99.90
25949;DHT22;13961;51.178;4.448;2023-07-16T05:13:15;17.60;99.90
25949;DHT22;13961;51.178;4.448;2023-07-16T05:15:43;17.70;99.90
25949;DHT22;13961;51.178;4.448;2023-07-16T05:18:12;17.80;99.90
25949;DHT22;13961;51.178;4.448;2023-07-16T05:20:38;17.70;99.90
25949;DHT22;13961;51.178;4.448;2023-07-16T05:23:03;17.80;99.90
25949;DHT22;13961;51.178;4.448;2023-07-16T05:25:29;17.80;99.90
25949;DHT22;13961;51.178;4.448;2023-07-16T05:27:55;17.90;99.90
25949;DHT22;13961;51.178;4.448;2023-07-16T05:30:21;17.90;99.90
25949;DHT22;13961;51.178;4.448;2023-07-16T05:32:47;17.90;99.90
25949;DHT22;13961;51.178;4.448;2023-07-16T05:35:12;18.00;99.90
25949;DHT22;13961;51.178;4.448;2023-07-16T05:37:38;17.90;99.90
25949;DHT22;13961;51.178;4.448;2023-07-16T05:40:04;18.00;99.90
25949;DHT22;13961;51.178;4.448;2023-07-16T05:42:31;18.10;99.90
25949;DHT22;13961;51.178;4.448;2023-07-16T05:44:57;18.10;99.90
25949;DHT22;13961;51.178;4.448;2023-07-16T05:47:22;18.10;99.90
25949;DHT22;13961;51.178;4.448;2023-07-16T05:49:48;18.20;99.90
25949;DHT22;13961;51.178;4.448;2023-07-16T05:52:13;18.30;99.90
25949;DHT22;13961;51.178;4.448;2023-07-16T05:54:39;18.20;99.90
25949;DHT22;13961;51.178;4.448;2023-07-16T05:57:05;18.10;99.90
25949;DHT22;13961;51.178;4.448;2023-07-16T05:59:31;18.10;99.90
25949;DHT22;13961;51.178;4.448;2023-07-16T06:01:59;18.10;99.90
25949;DHT22;13961;51.178;4.448;2023-07-16T06:04:25;18.20;99.90
25949;DHT22;13961;51.178;4.448;2023-07-16T06:06:51;18.30;99.90
25949;DHT22;13961;51.178;4.448;2023-07-16T06:09:16;18.30;99.90
25949;DHT22;13961;51.178;4.448;2023-07-16T06:11:42;18.40;99.90
25949;DHT22;13961;51.178;4.448;2023-07-16T06:14:08;18.50;99.90
25949;DHT22;13961;51.178;4.448;2023-07-16T06:16:34;18.70;99.90
25949;DHT22;13961;51.178;4.448;2023-07-16T06:18:59;18.70;99.90
25949;DHT22;13961;51.178;4.448;2023-07-16T06:21:25;18.70;99.90
25949;DHT22;13961;51.178;4.448;2023-07-16T06:23:50;18.80;99.90
25949;DHT22;13961;51.178;4.448;2023-07-16T06:26:16;18.80;99.90
25949;DHT22;13961;51.178;4.448;2023-07-16T06:28:42;18.90;99.90
25949;DHT22;13961;51.178;4.448;2023-07-16T06:31:07;18.90;99.90
25949;DHT22;13961;51.178;4.448;2023-07-16T06:33:33;18.80;99.90
25949;DHT22;13961;51.178;4.448;2023-07-16T06:35:59;18.80;99.90
25949;DHT22;13961;51.178;4.448;2023-07-16T06:38:24;18.90;99.90
25949;DHT22;13961;51.178;4.448;2023-07-16T06:40:53;19.00;99.90
25949;DHT22;13961;51.178;4.448;2023-07-16T06:43:19;20.10;99.90
25949;DHT22;13961;51.178;4.448;2023-07-16T06:45:45;22.10;99.90
25949;DHT22;13961;51.178;4.448;2023-07-16T06:48:10;23.20;99.90
25949;DHT22;13961;51.178;4.448;2023-07-16T06:50:36;24.40;99.90
25949;DHT22;13961;51.178;4.448;2023-07-16T06:53:02;25.10;99.90
25949;DHT22;13961;51.178;4.448;2023-07-16T06:55:27;25.30;99.90
25949;DHT22;13961;51.178;4.448;2023-07-16T06:57:53;25.90;99.90
25949;DHT22;13961;51.178;4.448;2023-07-16T07:00:19;25.80;99.90
25949;DHT22;13961;51.178;4.448;2023-07-16T07:02:44;25.40;99.90
25949;DHT22;13961;51.178;4.448;2023-07-16T07:05:10;25.50;99.90
25949;DHT22;13961;51.178;4.448;2023-07-16T07:07:35;26.00;99.90
25949;DHT22;13961;51.178;4.448;2023-07-16T07:10:01;26.20;99.90
25949;DHT22;13961;51.178;4.448;2023-07-16T07:12:27;26.50;99.90
25949;DHT22;13961;51.178;4.448;2023-07-16T07:14:52;26.70;99.90
25949;DHT22;13961;51.178;4.448;2023-07-16T07:17:18;26.40;99.90
25949;DHT22;13961;51.178;4.448;2023-07-16T07:19:44;27.80;99.90
25949;DHT22;13961;51.178;4.448;2023-07-16T07:22:10;27.90;99.70
25949;DHT22;13961;51.178;4.448;2023-07-16T07:24:36;27.40;99.90
25949;DHT22;13961;51.178;4.448;2023-07-16T07:27:01;27.00;99.90
25949;DHT22;13961;51.178;4.448;2023-07-16T07:29:27;26.20;99.90
25949;DHT22;13961;51.178;4.448;2023-07-16T07:31:53;25.20;99.90
25949;DHT22;13961;51.178;4.448;2023-07-16T07:34:19;25.30;99.90
25949;DHT22;13961;51.178;4.448;2023-07-16T07:36:46;26.60;99.90
25949;DHT22;13961;51.178;4.448;2023-07-16T07:39:11;26.60;99.90
25949;DHT22;13961;51.178;4.448;2023-07-16T07:41:42;27.20;99.90
25949;DHT22;13961;51.178;4.448;2023-07-16T07:44:07;27.30;99.90
25949;DHT22;13961;51.178;4.448;2023-07-16T07:46:33;27.80;99.90
25949;DHT22;13961;51.178;4.448;2023-07-16T07:48:58;28.20;99.70
25949;DHT22;13961;51.178;4.448;2023-07-16T07:51:24;27.40;99.90
25949;DHT22;13961;51.178;4.448;2023-07-16T07:53:50;27.00;99.90
25949;DHT22;13961;51.178;4.448;2023-07-16T07:56:15;27.20;99.90
25949;DHT22;13961;51.178;4.448;2023-07-16T07:58:41;27.80;99.90
25949;DHT22;13961;51.178;4.448;2023-07-16T08:01:07;28.40;99.10
25949;DHT22;13961;51.178;4.448;2023-07-16T08:03:33;26.50;99.90
25949;DHT22;13961;51.178;4.448;2023-07-16T08:05:59;26.50;99.90
25949;DHT22;13961;51.178;4.448;2023-07-16T08:08:25;25.70;99.90
25949;DHT22;13961;51.178;4.448;2023-07-16T08:10:50;25.40;99.90
25949;DHT22;13961;51.178;4.448;2023-07-16T08:13:17;25.70;99.90
25949;DHT22;13961;51.178;4.448;2023-07-16T08:15:46;25.60;99.90
25949;DHT22;13961;51.178;4.448;2023-07-16T08:18:13;24.90;99.90
25949;DHT22;13961;51.178;4.448;2023-07-16T08:20:38;24.80;99.90
25949;DHT22;13961;51.178;4.448;2023-07-16T08:23:06;24.40;99.90
25949;DHT22;13961;51.178;4.448;2023-07-16T08:25:35;24.10;99.90
25949;DHT22;13961;51.178;4.448;2023-07-16T08:28:02;24.30;99.90
25949;DHT22;13961;51.178;4.448;2023-07-16T08:30:28;24.20;99.90
25949;DHT22;13961;51.178;4.448;2023-07-16T08:32:53;24.20;99.90
25949;DHT22;13961;51.178;4.448;2023-07-16T08:35:19;24.30;99.90
25949;DHT22;13961;51.178;4.448;2023-07-16T08:37:45;24.00;99.90
25949;DHT22;13961;51.178;4.448;2023-07-16T08:40:12;23.60;99.90
25949;DHT22;13961;51.178;4.448;2023-07-16T08:42:39;23.80;99.90
25949;DHT22;13961;51.178;4.448;2023-07-16T08:45:10;24.20;99.90
25949;DHT22;13961;51.178;4.448;2023-07-16T08:47:36;24.70;99.90
25949;DHT22;13961;51.178;4.448;2023-07-16T08:50:02;24.40;99.90
25949;DHT22;13961;51.178;4.448;2023-07-16T08:52:28;24.20;99.90
25949;DHT22;13961;51.178;4.448;2023-07-16T08:54:55;23.90;99.90
25949;DHT22;13961;51.178;4.448;2023-07-16T08:57:21;24.00;99.90
25949;DHT22;13961;51.178;4.448;2023-07-16T08:59:50;23.90;99.90
25949;DHT22;13961;51.178;4.448;2023-07-16T09:02:20;23.80;99.90
25949;DHT22;13961;51.178;4.448;2023-07-16T09:04:49;23.80;99.90
25949;DHT22;13961;51.178;4.448;2023-07-16T09:07:33;23.90;99.90
25949;DHT22;13961;51.178;4.448;2023-07-16T09:09:59;23.80;99.90
25949;DHT22;13961;51.178;4.448;2023-07-16T09:12:25;23.80;99.90
25949;DHT22;13961;51.178;4.448;2023-07-16T09:14:51;23.70;99.90
25949;DHT22;13961;51.178;4.448;2023-07-16T09:17:24;23.90;99.90
25949;DHT22;13961;51.178;4.448;2023-07-16T09:19:53;23.80;99.90
25949;DHT22;13961;51.178;4.448;2023-07-16T09:22:19;24.00;99.90
25949;DHT22;13961;51.178;4.448;2023-07-16T09:24:48;24.40;99.90
25949;DHT22;13961;51.178;4.448;2023-07-16T09:27:14;24.40;99.90
25949;DHT22;13961;51.178;4.448;2023-07-16T09:29:40;24.90;99.90
25949;DHT22;13961;51.178;4.448;2023-07-16T09:32:06;25.50;99.90
25949;DHT22;13961;51.178;4.448;2023-07-16T09:34:32;24.90;99.90
25949;DHT22;13961;51.178;4.448;2023-07-16T09:36:59;24.90;99.90
25949;DHT22;13961;51.178;4.448;2023-07-16T09:39:25;24.40;99.90
25949;DHT22;13961;51.178;4.448;2023-07-16T09:41:52;23.70;99.90
25949;DHT22;13961;51.178;4.448;2023-07-16T09:44:18;23.60;99.90
25949;DHT22;13961;51.178;4.448;2023-07-16T09:46:45;23.20;99.90
25949;DHT22;13961;51.178;4.448;2023-07-16T09:49:11;23.40;99.90
25949;DHT22;13961;51.178;4.448;2023-07-16T09:51:38;23.20;99.90
25949;DHT22;13961;51.178;4.448;2023-07-16T09:54:04;23.00;99.90
25949;DHT22;13961;51.178;4.448;2023-07-16T09:56:39;23.00;99.90
25949;DHT22;13961;51.178;4.448;2023-07-16T09:59:09;22.50;99.90
25949;DHT22;13961;51.178;4.448;2023-07-16T10:01:37;22.20;99.90
25949;DHT22;13961;51.178;4.448;2023-07-16T10:04:15;22.00;99.90
25949;DHT22;13961;51.178;4.448;2023-07-16T10:06:54;22.10;99.90
25949;DHT22;13961;51.178;4.448;2023-07-16T10:09:40;22.20;99.90
25949;DHT22;13961;51.178;4.448;2023-07-16T10:12:20;22.20;99.90
25949;DHT22;13961;51.178;4.448;2023-07-16T10:14:48;22.30;99.90
25949;DHT22;13961;51.178;4.448;2023-07-16T10:17:15;22.50;99.90
25949;DHT22;13961;51.178;4.448;2023-07-16T10:20:02;22.80;99.90
25949;DHT22;13961;51.178;4.448;2023-07-16T10:22:40;22.70;99.90
25949;DHT22;13961;51.178;4.448;2023-07-16T10:27:54;22.30;99.90
25949;DHT22;13961;51.178;4.448;2023-07-16T10:30:49;21.80;99.90
25949;DHT22;13961;51.178;4.448;2023-07-16T10:33:19;21.90;99.90
25949;DHT22;13961;51.178;4.448;2023-07-16T10:35:46;22.00;99.90
25949;DHT22;13961;51.178;4.448;2023-07-16T10:38:12;22.00;99.90
25949;DHT22;13961;51.178;4.448;2023-07-16T10:40:41;21.60;99.90
25949;DHT22;13961;51.178;4.448;2023-07-16T10:43:10;21.70;99.90
25949;DHT22;13961;51.178;4.448;2023-07-16T10:45:37;21.70;99.90
25949;DHT22;13961;51.178;4.448;2023-07-16T10:48:03;21.40;99.90
25949;DHT22;13961;51.178;4.448;2023-07-16T10:50:32;21.20;99.90
25949;DHT22;13961;51.178;4.448;2023-07-16T10:52:59;21.40;99.90
25949;DHT22;13961;51.178;4.448;2023-07-16T10:55:27;21.20;99.90
25949;DHT22;13961;51.178;4.448;2023-07-16T10:57:56;21.40;99.90
25949;DHT22;13961;51.178;4.448;2023-07-16T11:00:22;21.20;99.90
25949;DHT22;13961;51.178;4.448;2023-07-16T11:02:51;21.30;99.90
25949;DHT22;13961;51.178;4.448;2023-07-16T11:05:18;21.10;99.90
25949;DHT22;13961;51.178;4.448;2023-07-16T11:07:45;20.80;99.90
25949;DHT22;13961;51.178;4.448;2023-07-16T11:10:17;20.80;99.90
25949;DHT22;13961;51.178;4.448;2023-07-16T11:12:43;20.90;99.90
25949;DHT22;13961;51.178;4.448;2023-07-16T11:15:10;21.40;99.90
25949;DHT22;13961;51.178;4.448;2023-07-16T11:17:39;21.80;99.90
25949;DHT22;13961;51.178;4.448;2023-07-16T11:20:07;22.10;99.90
25949;DHT22;13961;51.178;4.448;2023-07-16T11:22:37;22.50;99.90
25949;DHT22;13961;51.178;4.448;2023-07-16T11:25:03;22.40;99.90
25949;DHT22;13961;51.178;4.448;2023-07-16T11:27:33;22.40;99.90
25949;DHT22;13961;51.178;4.448;2023-07-16T11:30:02;22.70;99.90
25949;DHT22;13961;51.178;4.448;2023-07-16T11:34:54;23.00;99.90
25949;DHT22;13961;51.178;4.448;2023-07-16T11:37:20;23.30;99.90
25949;DHT22;13961;51.178;4.448;2023-07-16T11:39:47;23.00;99.90
25949;DHT22;13961;51.178;4.448;2023-07-16T11:42:13;23.10;99.90
25949;DHT22;13961;51.178;4.448;2023-07-16T11:44:39;23.10;99.90
25949;DHT22;13961;51.178;4.448;2023-07-16T11:47:04;23.30;99.90
25949;DHT22;13961;51.178;4.448;2023-07-16T11:49:30;23.40;99.90
25949;DHT22;13961;51.178;4.448;2023-07-16T11:51:57;23.80;99.90
25949;DHT22;13961;51.178;4.448;2023-07-16T11:54:23;23.90;99.90
25949;DHT22;13961;51.178;4.448;2023-07-16T11:56:49;23.70;99.90
25949;DHT22;13961;51.178;4.448;2023-07-16T11:59:16;23.00;99.90
25949;DHT22;13961;51.178;4.448;2023-07-16T12:01:46;23.10;99.90
25949;DHT22;13961;51.178;4.448;2023-07-16T12:04:14;23.30;99.90
25949;DHT22;13961;51.178;4.448;2023-07-16T12:06:39;23.50;99.90
25949;DHT22;13961;51.178;4.448;2023-07-16T12:09:05;23.70;99.90
25949;DHT22;13961;51.178;4.448;2023-07-16T12:11:31;24.00;99.90
25949;DHT22;13961;51.178;4.448;2023-07-16T12:13:57;24.30;99.90
25949;DHT22;13961;51.178;4.448;2023-07-16T12:16:22;24.80;99.90
25949;DHT22;13961;51.178;4.448;2023-07-16T12:18:48;25.00;99.90
25949;DHT22;13961;51.178;4.448;2023-07-16T12:21:14;25.10;99.90
25949;DHT22;13961;51.178;4.448;2023-07-16T12:23:39;25.30;99.90
25949;DHT22;13961;51.178;4.448;2023-07-16T12:26:05;24.60;99.90
25949;DHT22;13961;51.178;4.448;2023-07-16T12:28:30;24.20;99.90
25949;DHT22;13961;51.178;4.448;2023-07-16T12:30:56;24.00;99.90
25949;DHT22;13961;51.178;4.448;2023-07-16T12:33:28;24.00;99.90
25949;DHT22;13961;51.178;4.448;2023-07-16T12:35:53;24.40;99.90
25949;DHT22;13961;51.178;4.448;2023-07-16T12:38:19;24.20;99.90
25949;DHT22;13961;51.178;4.448;2023-07-16T12:40:45;24.10;99.90
25949;DHT22;13961;51.178;4.448;2023-07-16T12:43:10;24.20;99.90
25949;DHT22;13961;51.178;4.448;2023-07-16T12:45:36;24.60;99.90
25949;DHT22;13961;51.178;4.448;2023-07-16T12:48:01;24.70;99.90
25949;DHT22;13961;51.178;4.448;2023-07-16T12:50:27;24.80;99.90
25949;DHT22;13961;51.178;4.448;2023-07-16T12:52:54;24.80;99.90
25949;DHT22;13961;51.178;4.448;2023-07-16T12:55:20;24.70;99.90
25949;DHT22;13961;51.178;4.448;2023-07-16T12:57:45;24.40;99.90
25949;DHT22;13961;51.178;4.448;2023-07-16T13:00:11;24.40;99.90
25949;DHT22;13961;51.178;4.448;2023-07-16T13:02:38;24.40;99.90
25949;DHT22;13961;51.178;4.448;2023-07-16T13:05:03;24.40;99.90
25949;DHT22;13961;51.178;4.448;2023-07-16T13:07:30;24.10;99.90
25949;DHT22;13961;51.178;4.448;2023-07-16T13:09:57;24.20;99.90
25949;DHT22;13961;51.178;4.448;2023-07-16T13:12:22;24.20;99.90
25949;DHT22;13961;51.178;4.448;2023-07-16T13:14:48;24.20;99.90
25949;DHT22;13961;51.178;4.448;2023-07-16T13:17:14;24.40;99.90
25949;DHT22;13961;51.178;4.448;2023-07-16T13:19:41;24.40;99.90
25949;DHT22;13961;51.178;4.448;2023-07-16T13:22:07;24.40;99.90
25949;DHT22;13961;51.178;4.448;2023-07-16T13:24:33;24.20;99.90
25949;DHT22;13961;51.178;4.448;2023-07-16T13:26:58;23.90;99.90
25949;DHT22;13961;51.178;4.448;2023-07-16T13:29:24;23.90;99.90
25949;DHT22;13961;51.178;4.448;2023-07-16T13:31:50;24.20;99.90
25949;DHT22;13961;51.178;4.448;2023-07-16T13:34:15;24.40;99.90
25949;DHT22;13961;51.178;4.448;2023-07-16T13:36:41;24.60;99.90
25949;DHT22;13961;51.178;4.448;2023-07-16T13:39:07;24.60;99.90
25949;DHT22;13961;51.178;4.448;2023-07-16T13:41:33;24.50;99.90
25949;DHT22;13961;51.178;4.448;2023-07-16T13:43:59;24.40;99.90
25949;DHT22;13961;51.178;4.448;2023-07-16T13:46:24;24.30;99.90
25949;DHT22;13961;51.178;4.448;2023-07-16T13:48:50;23.70;99.90
25949;DHT22;13961;51.178;4.448;2023-07-16T13:51:15;23.80;99.90
25949;DHT22;13961;51.178;4.448;2023-07-16T13:53:41;23.60;99.90
25949;DHT22;13961;51.178;4.448;2023-07-16T13:56:07;23.80;99.90
25949;DHT22;13961;51.178;4.448;2023-07-16T13:58:33;23.90;99.90
25949;DHT22;13961;51.178;4.448;2023-07-16T14:00:59;24.10;99.90
25949;DHT22;13961;51.178;4.448;2023-07-16T14:03:25;24.40;99.90
25949;DHT22;13961;51.178;4.448;2023-07-16T14:05:51;24.90;99.90
25949;DHT22;13961;51.178;4.448;2023-07-16T14:08:17;24.50;99.90
25949;DHT22;13961;51.178;4.448;2023-07-16T14:10:43;24.10;99.90
25949;DHT22;13961;51.178;4.448;2023-07-16T14:13:08;23.70;99.90
25949;DHT22;13961;51.178;4.448;2023-07-16T14:15:34;24.00;99.90
25949;DHT22;13961;51.178;4.448;2023-07-16T14:18:00;24.40;99.90
25949;DHT22;13961;51.178;4.448;2023-07-16T14:20:25;24.60;99.90
25949;DHT22;13961;51.178;4.448;2023-07-16T14:22:51;24.90;99.90
25949;DHT22;13961;51.178;4.448;2023-07-16T14:25:16;25.10;99.90
25949;DHT22;13961;51.178;4.448;2023-07-16T14:27:43;25.30;99.90
25949;DHT22;13961;51.178;4.448;2023-07-16T14:30:09;25.60;99.90
25949;DHT22;13961;51.178;4.448;2023-07-16T14:32:36;25.40;99.90
25949;DHT22;13961;51.178;4.448;2023-07-16T14:35:01;25.10;99.90
25949;DHT22;13961;51.178;4.448;2023-07-16T14:37:27;24.60;99.90
25949;DHT22;13961;51.178;4.448;2023-07-16T14:39:53;24.50;99.90
25949;DHT22;13961;51.178;4.448;2023-07-16T14:42:18;24.50;99.90
25949;DHT22;13961;51.178;4.448;2023-07-16T14:44:44;24.60;99.90
25949;DHT22;13961;51.178;4.448;2023-07-16T14:47:09;24.70;99.90
25949;DHT22;13961;51.178;4.448;2023-07-16T14:49:35;24.70;99.90
25949;DHT22;13961;51.178;4.448;2023-07-16T14:52:01;24.60;99.90
25949;DHT22;13961;51.178;4.448;2023-07-16T14:54:26;24.80;99.90
25949;DHT22;13961;51.178;4.448;2023-07-16T14:56:52;24.90;99.90
25949;DHT22;13961;51.178;4.448;2023-07-16T14:59:18;24.90;99.90
25949;DHT22;13961;51.178;4.448;2023-07-16T15:01:43;25.20;99.90
25949;DHT22;13961;51.178;4.448;2023-07-16T15:04:09;25.20;99.90
25949;DHT22;13961;51.178;4.448;2023-07-16T15:06:35;25.10;99.90
25949;DHT22;13961;51.178;4.448;2023-07-16T15:09:01;25.40;99.90
25949;DHT22;13961;51.178;4.448;2023-07-16T15:11:27;25.70;99.90
25949;DHT22;13961;51.178;4.448;2023-07-16T15:13:52;25.50;99.90
25949;DHT22;13961;51.178;4.448;2023-07-16T15:16:18;25.30;99.90
25949;DHT22;13961;51.178;4.448;2023-07-16T15:18:46;25.50;99.90
25949;DHT22;13961;51.178;4.448;2023-07-16T15:21:12;25.10;99.90
25949;DHT22;13961;51.178;4.448;2023-07-16T15:23:38;25.20;99.90
25949;DHT22;13961;51.178;4.448;2023-07-16T15:26:05;25.10;99.90
25949;DHT22;13961;51.178;4.448;2023-07-16T15:28:32;25.20;99.90
25949;DHT22;13961;51.178;4.448;2023-07-16T15:31:02;25.20;99.90
25949;DHT22;13961;51.178;4.448;2023-07-16T15:33:28;25.40;99.90
25949;DHT22;13961;51.178;4.448;2023-07-16T15:35:56;25.70;99.90
25949;DHT22;13961;51.178;4.448;2023-07-16T15:38:22;25.60;99.90
25949;DHT22;13961;51.178;4.448;2023-07-16T15:40:47;25.40;99.90